Rome, Italy

11:22 AM CEST on July 30, 2016 (GMT +0200)
Largo di Torre Argentina | | Change Station

Elev 128 ft 41.90 °N, 12.48 °E | Updated 13 minutes ago

Clear
Clear
88.7 °F
Feels Like 93 °F
N
3.0
Wind Variable Wind from ESE
Gusts 3.0 mph

Today
High -- | Low -- °F
--% Chance of Precip.
Yesterday
High -- | Low -- °F
Precip. -- in
Pressure 30.01 in
Visibility -9999.0 miles
Clouds
Heat Index 93 °F
Dew Point 68 °F
Humidity 51%
Rainfall 0.00 in
Snow Depth Not available.
6:02 AM 8:30 PM
Waning Crescent, 14% visible
METAR LIRU 300850Z VRB03KT CAVOK 30/18 Q1016
Pressure 30.01 in
Visibility -9999.0 miles
Clouds
Heat Index 93 °F
Dew Point 68 °F
Humidity 51%
Rainfall 0.00 in
Snow Depth Not available.
6:02 AM 8:30 PM
Waning Crescent, 14% visible
METAR LIRU 300850Z VRB03KT CAVOK 30/18 Q1016

10-Day Weather Forecast

×

Almanac

Astronomy

Jul. 30, 2016 Rise Set
Actual Time
Civil Twilight
Nautical Twilight
Astronomical Twilight
Moon
Length of Visible Light
Length of Day
Tomorrow will be .
, % of the Moon is Illuminated

Today's Extremes

Country Highs Country Lows

Community

WunderPhotos

Upload Photos

1,928,528 photos uploaded!

WunderBlog® & News

Nearby

Air Quality

  Air Quality AQ Index Pollutant
Not available.

Snow Depth

Station Depth Elevation

Earthquake Activity

City Distance Mag. Time & Date
Minimum magnitude displayed is 2.5.

Coastal Water Temperatures

Place Temperature

Stations

Nearby Weather Stations

Station Location Temp. Windchill Dew Point Humidity Wind Precip. Elev Updated Type